Time;durP1;ratioP1;P1;durP2;ratioP2;P2;SDS_P1;SDS_P2;PMS_P1;PMS_P2;Temp;Humidity;BMP_temperature;BMP_pressure;BME280_temperature;BME280_humidity;BME280_pressure;Samples;Min_cycle;Max_cycle;Signal;HPM_P1;HPM_P2
2022/07/11 00:02:24;;;;;;;2.42;1.80;;;17.20;63.60;;;17.62;52.20;98299.81;5026142;28;20124;-39
2022/07/11 00:04:52;;;;;;;4.55;2.72;;;17.20;64.60;;;17.50;52.74;98297.63;5026643;28;20063;-39
2022/07/11 00:07:20;;;;;;;4.53;2.50;;;17.10;64.60;;;17.57;52.41;98294.19;5040690;28;20061;-40
2022/07/11 00:09:48;;;;;;;2.35;1.95;;;17.20;64.20;;;17.52;52.86;98289.38;5027989;28;20057;-40
2022/07/11 00:12:20;;;;;;;4.18;2.63;;;17.20;65.00;;;17.54;52.69;98287.31;5026310;28;20049;-39
2022/07/11 00:14:48;;;;;;;2.78;2.08;;;17.20;63.90;;;17.58;52.53;98283.22;5025908;28;20360;-40
2022/07/11 00:17:16;;;;;;;3.20;2.17;;;17.20;63.60;;;17.66;52.31;98282.28;5027235;28;20067;-40
2022/07/11 00:19:45;;;;;;;2.92;2.60;;;17.40;63.10;;;17.66;52.34;98271.50;5026853;28;20060;-39
2022/07/11 00:22:13;;;;;;;3.15;2.28;;;17.40;63.30;;;17.68;52.44;98280.22;5026748;28;20063;-40
2022/07/11 00:24:41;;;;;;;2.35;2.15;;;17.30;63.10;;;17.64;52.44;98273.53;5026582;28;20077;-40
2022/07/11 00:27:09;;;;;;;3.15;2.35;;;17.30;63.60;;;17.63;52.64;98277.28;5027086;28;20667;-40
2022/07/11 00:29:37;;;;;;;3.30;2.40;;;17.20;63.80;;;17.65;52.38;98273.38;5025720;28;20063;-40
2022/07/11 00:32:06;;;;;;;2.90;2.45;;;17.30;63.50;;;17.64;52.53;98279.78;5026480;28;20049;-40
2022/07/11 00:34:34;;;;;;;3.22;2.13;;;17.30;63.70;;;17.56;52.93;98270.97;5042424;28;20046;-40
2022/07/11 00:37:02;;;;;;;2.42;2.22;;;17.20;64.30;;;17.47;53.28;98279.19;5025605;28;20056;-41
2022/07/11 00:39:30;;;;;;;4.00;2.20;;;17.10;65.50;;;17.42;53.45;98272.69;5026699;28;20343;-40
2022/07/11 00:41:58;;;;;;;2.95;2.22;;;17.00;65.40;;;17.43;53.40;98269.00;5026628;28;20060;-40
2022/07/11 00:44:26;;;;;;;2.67;2.15;;;17.00;65.30;;;17.39;53.44;98271.22;5027265;28;20068;-40
2022/07/11 00:46:54;;;;;;;2.22;1.92;;;17.10;65.70;;;17.35;53.66;98266.41;5026800;28;20053;-39
2022/07/11 00:49:22;;;;;;;3.83;2.78;;;16.90;65.90;;;17.30;53.75;98267.81;5026287;28;20063;-40
2022/07/11 00:51:50;;;;;;;3.70;2.20;;;16.90;66.30;;;17.32;53.68;98270.31;5026117;28;20255;-39
2022/07/11 00:54:21;;;;;;;3.45;2.45;;;16.90;66.50;;;17.35;53.66;98264.56;5026705;28;20067;-40
2022/07/11 00:56:50;;;;;;;3.88;2.47;;;17.00;65.90;;;17.35;53.49;98259.19;5025291;28;20061;-39
2022/07/11 00:59:19;;;;;;;3.90;2.78;;;16.90;65.80;;;17.39;53.42;98263.16;5025842;28;20071;-39
2022/07/11 01:01:47;;;;;;;2.53;2.33;;;17.10;65.50;;;17.45;53.59;98264.25;5026671;28;20061;-40
2022/07/11 01:04:15;;;;;;;3.60;2.65;;;17.10;65.20;;;17.46;53.40;98255.97;5026654;28;20505;-39
2022/07/11 01:06:43;;;;;;;3.05;2.30;;;17.10;65.20;;;17.48;53.55;98258.47;5024560;28;20665;-40
2022/07/11 01:09:11;;;;;;;2.83;2.40;;;17.10;65.20;;;17.49;53.43;98265.53;5026516;28;20049;-41
2022/07/11 01:11:39;;;;;;;2.42;2.20;;;17.20;65.20;;;17.52;53.56;98259.75;5024811;28;20052;-40
2022/07/11 01:14:07;;;;;;;2.75;2.25;;;17.20;65.60;;;17.48;53.81;98258.47;5026323;28;20049;-40
2022/07/11 01:16:35;;;;;;;2.80;2.50;;;17.10;65.60;;;17.45;53.79;98258.88;5025939;28;20401;-40
2022/07/11 01:19:03;;;;;;;2.78;2.40;;;17.10;65.90;;;17.43;53.73;98260.94;5024928;28;20049;-40
2022/07/11 01:21:39;;;;;;;3.13;2.45;;;17.10;66.00;;;17.43;53.97;98263.63;5025672;28;20075;-40
2022/07/11 01:24:09;;;;;;;3.05;2.47;;;17.10;66.30;;;17.40;54.15;98261.28;5025736;28;20061;-39
2022/07/11 01:26:37;;;;;;;3.97;2.40;;;17.00;66.40;;;17.29;54.65;98255.38;5026387;28;20051;-39
2022/07/11 01:29:10;;;;;;;3.03;2.72;;;16.90;67.80;;;17.22;54.83;98248.25;5029619;28;20053;-39
2022/07/11 01:31:42;;;;;;;3.83;2.90;;;16.80;68.40;;;17.11;55.35;98250.38;5029054;28;20340;-39
2022/07/11 01:34:11;;;;;;;3.15;2.63;;;16.70;68.80;;;17.11;55.41;98247.69;5029964;28;20041;-39
2022/07/11 01:36:39;;;;;;;4.13;2.78;;;16.70;68.90;;;17.15;55.29;98247.34;5029538;28;20050;-39
2022/07/11 01:39:07;;;;;;;4.43;3.75;;;16.80;68.60;;;17.18;55.03;98250.50;5029304;28;20049;-40
2022/07/11 01:41:35;;;;;;;3.67;3.10;;;16.90;68.20;;;17.21;55.10;98247.41;5029462;28;20059;-40
2022/07/11 01:44:02;;;;;;;3.80;2.67;;;16.90;69.40;;;17.18;55.42;98244.28;5028465;28;20283;-40
2022/07/11 01:46:30;;;;;;;4.22;3.17;;;16.80;69.30;;;17.15;55.60;98247.34;5029575;28;20061;-40
2022/07/11 01:48:58;;;;;;;5.63;3.50;;;16.70;69.80;;;17.08;55.92;98240.03;5028752;28;20079;-40
2022/07/11 01:51:29;;;;;;;3.38;3.08;;;16.70;70.50;;;17.06;55.80;98244.75;5027640;28;20057;-40
2022/07/11 01:53:57;;;;;;;4.75;4.32;;;16.60;70.50;;;16.93;56.88;98240.03;5027863;28;20065;-40
2022/07/11 01:56:27;;;;;;;4.40;3.08;;;16.60;72.40;;;16.99;56.44;98235.75;5030182;28;20067;-40
2022/07/11 01:59:01;;;;;;;3.85;3.25;;;16.60;71.30;;;17.00;56.51;98237.44;5030625;28;20041;-40
2022/07/11 02:01:29;;;;;;;3.70;3.35;;;16.60;71.40;;;17.03;56.56;98236.22;5029122;28;20060;-40
2022/07/11 02:03:59;;;;;;;4.55;3.42;;;16.70;71.00;;;17.06;56.25;98235.84;5029071;28;20057;-39
2022/07/11 02:06:27;;;;;;;6.10;3.65;;;16.80;70.90;;;17.10;56.35;98240.66;5028785;28;20057;-39
2022/07/11 02:08:54;;;;;;;5.45;3.67;;;16.80;70.70;;;17.11;56.60;98234.25;5026760;28;20053;-40
2022/07/11 02:11:23;;;;;;;4.82;3.33;;;16.80;71.20;;;17.08;56.76;98231.97;5028921;28;20045;-39
2022/07/11 02:13:51;;;;;;;4.07;3.17;;;16.70;72.00;;;17.09;56.90;98230.09;5028858;28;20052;-40
2022/07/11 02:16:19;;;;;;;5.45;3.95;;;16.80;71.60;;;17.10;57.10;98239.84;5029194;28;20483;-39
2022/07/11 02:18:47;;;;;;;3.47;3.17;;;16.80;71.70;;;17.14;56.81;98235.75;5027392;28;20052;-40
2022/07/11 02:21:15;;;;;;;4.43;3.90;;;16.80;71.40;;;17.21;56.63;98233.94;5028805;28;20041;-40
2022/07/11 02:23:43;;;;;;;4.15;3.75;;;16.90;71.00;;;17.21;56.63;98233.94;5029357;28;20412;-40
2022/07/11 02:26:12;;;;;;;5.40;3.75;;;16.90;71.10;;;17.25;56.51;98234.41;5028925;28;20053;-39
2022/07/11 02:28:42;;;;;;;4.53;4.05;;;17.00;71.10;;;17.27;56.45;98241.28;5028260;28;20057;-39
2022/07/11 02:31:10;;;;;;;4.18;2.95;;;17.00;71.00;;;17.26;56.52;98238.78;5029492;28;20063;-40
2022/07/11 02:33:37;;;;;;;4.43;3.45;;;17.00;71.00;;;17.31;56.58;98233.66;5027870;28;20062;-40
2022/07/11 02:36:07;;;;;;;4.55;4.15;;;17.00;71.00;;;17.31;56.63;98231.81;5027415;28;20048;-40
2022/07/11 02:38:35;;;;;;;4.35;3.92;;;17.00;70.90;;;17.31;56.79;98239.03;5028528;28;20079;-39
2022/07/11 02:41:04;;;;;;;4.22;3.65;;;17.00;71.90;;;17.21;56.95;98239.34;5029714;28;20362;-39
2022/07/11 02:43:31;;;;;;;3.85;3.45;;;16.80;72.10;;;17.26;56.83;98233.41;5027386;28;20063;-40
2022/07/11 02:46:00;;;;;;;4.15;3.75;;;16.90;71.80;;;17.29;57.09;98235.69;5028487;28;20360;-40
2022/07/11 02:48:28;;;;;;;4.47;3.80;;;17.00;72.60;;;17.25;56.99;98232.56;5028233;28;20053;-39
2022/07/11 02:50:55;;;;;;;4.70;4.22;;;16.90;72.10;;;17.28;56.93;98232.19;5028563;28;20065;-39
2022/07/11 02:53:23;;;;;;;4.63;3.78;;;16.90;72.50;;;17.31;56.83;98236.34;5027529;28;20046;-39
2022/07/11 02:55:51;;;;;;;6.20;3.92;;;17.00;71.60;;;17.33;56.98;98231.59;5028957;28;20072;-39
2022/07/11 02:58:19;;;;;;;4.38;3.92;;;17.00;71.40;;;17.31;57.14;98239.88;5027486;28;20053;-39
2022/07/11 03:00:47;;;;;;;4.35;3.40;;;17.00;71.80;;;17.29;57.06;98243.75;5026983;28;20052;-39
2022/07/11 03:03:15;;;;;;;7.43;4.03;;;17.00;72.10;;;17.29;57.03;98243.75;5026342;28;20318;-39
2022/07/11 03:05:43;;;;;;;5.60;4.35;;;16.90;72.30;;;17.24;57.48;98247.03;5026628;28;20336;-39
2022/07/11 03:08:11;;;;;;;6.45;4.00;;;16.90;72.80;;;17.20;57.47;98242.22;5027713;28;20482;-39
2022/07/11 03:10:39;;;;;;;5.38;4.05;;;16.80;73.20;;;17.16;57.58;98244.47;5028528;28;20057;-39
2022/07/11 03:13:07;;;;;;;5.25;4.30;;;16.70;73.60;;;17.08;58.26;98247.28;5027178;28;20236;-39
2022/07/11 03:15:34;;;;;;;5.80;4.57;;;16.70;74.20;;;17.11;57.93;98241.50;5027340;28;20056;-39
2022/07/11 03:18:02;;;;;;;4.88;4.38;;;16.80;74.10;;;17.10;57.94;98240.66;5028487;28;20057;-40
2022/07/11 03:20:30;;;;;;;6.03;4.45;;;16.80;74.10;;;17.13;57.89;98237.59;5027068;28;20052;-40
2022/07/11 03:22:58;;;;;;;8.88;4.63;;;16.80;74.10;;;17.11;58.00;98236.13;5028416;28;20057;-40
2022/07/11 03:25:26;;;;;;;5.03;4.32;;;16.80;75.50;;;17.06;58.63;98235.84;5030114;28;20112;-39
2022/07/11 03:27:54;;;;;;;7.55;4.85;;;16.70;75.10;;;17.03;58.59;98241.59;5028623;28;20065;-40
2022/07/11 03:30:22;;;;;;;5.55;4.25;;;16.60;75.70;;;17.06;58.08;98239.38;5027780;28;20459;-39
2022/07/11 03:32:50;;;;;;;5.68;4.88;;;16.70;75.00;;;17.12;58.33;98241.31;5027638;28;20049;-40
2022/07/11 03:38:04;;;;;;;6.22;4.22;;;16.80;74.50;;;17.13;58.30;98242.13;5027767;28;20050;-40
2022/07/11 03:40:31;;;;;;;5.55;4.68;;;16.80;74.60;;;17.17;58.21;98243.44;5027433;28;20060;-40
2022/07/11 03:42:59;;;;;;;5.30;4.40;;;16.90;74.30;;;17.23;58.15;98248.03;5026412;28;20047;-39
2022/07/11 03:45:27;;;;;;;5.90;5.28;;;17.00;73.80;;;17.26;58.08;98242.28;5026817;28;20053;-40
2022/07/11 03:47:55;;;;;;;6.85;4.47;;;17.00;74.10;;;17.22;58.29;98241.00;5027472;28;20356;-40
2022/07/11 03:50:23;;;;;;;7.35;4.90;;;16.90;74.10;;;17.22;58.21;98243.72;5026238;28;20079;-40
2022/07/11 03:52:52;;;;;;;6.30;4.75;;;16.90;74.30;;;17.10;58.78;98239.84;5027373;28;20059;-40
2022/07/11 03:55:21;;;;;;;7.63;4.75;;;16.70;75.20;;;17.03;58.95;98237.06;5025306;28;20063;-40
2022/07/11 03:57:48;;;;;;;5.63;4.47;;;16.70;75.80;;;17.05;58.82;98237.69;5026671;28;20390;-40
2022/07/11 04:00:19;;;;;;;5.28;4.35;;;16.70;75.60;;;17.13;58.68;98240.28;5025288;28;20253;-40
2022/07/11 04:02:48;;;;;;;5.45;4.55;;;16.80;75.00;;;17.20;58.48;98235.00;5026791;28;20042;-40
2022/07/11 04:05:16;;;;;;;5.05;4.15;;;16.90;74.60;;;17.16;58.66;98240.91;5027545;28;20046;-40
2022/07/11 04:07:44;;;;;;;5.88;4.70;;;16.80;75.10;;;17.20;58.54;98240.38;5026056;28;20079;-40
2022/07/11 04:10:12;;;;;;;5.50;4.40;;;16.90;75.00;;;17.18;58.77;98241.59;5025673;28;20053;-40
2022/07/11 04:12:40;;;;;;;5.28;4.20;;;16.80;75.10;;;17.20;58.60;98242.22;5026925;28;20053;-40
2022/07/11 04:15:08;;;;;;;6.65;4.45;;;16.90;75.10;;;17.20;58.74;98243.06;5026236;28;20045;-40
2022/07/11 04:17:37;;;;;;;5.47;4.63;;;16.90;75.20;;;17.22;58.68;98243.72;5025780;28;20057;-40
2022/07/11 04:20:06;;;;;;;6.00;4.55;;;16.90;75.10;;;17.17;59.09;98238.03;5027070;28;20057;-40
2022/07/11 04:22:34;;;;;;;5.63;4.50;;;16.90;75.50;;;17.23;58.73;98244.53;5025731;28;20053;-40
2022/07/11 04:25:01;;;;;;;5.57;4.53;;;16.90;75.20;;;17.27;58.46;98238.59;5026105;28;20060;-39
2022/07/11 04:27:29;;;;;;;4.88;4.35;;;17.00;74.80;;;17.30;58.54;98235.50;5026271;28;20358;-39
2022/07/11 04:30:01;;;;;;;5.78;4.97;;;17.00;74.70;;;17.31;58.35;98233.66;5026867;28;20060;-39
2022/07/11 04:32:28;;;;;;;6.30;5.32;;;17.00;74.80;;;17.26;58.68;98239.59;5026751;28;20083;-40
2022/07/11 04:34:56;;;;;;;5.07;4.57;;;16.90;75.40;;;17.25;58.95;98237.97;5026653;28;20057;-40
2022/07/11 04:37:26;;;;;;;5.10;4.60;;;16.90;75.80;;;17.22;58.88;98230.25;5025598;28;20061;-40
2022/07/11 04:39:53;;;;;;;6.70;5.43;;;16.90;76.40;;;17.21;59.12;98233.94;5025183;28;20047;-40
2022/07/11 04:42:21;;;;;;;6.78;4.95;;;16.90;76.00;;;17.27;58.88;98232.34;5027755;28;20061;-40
2022/07/11 04:44:49;;;;;;;5.22;4.72;;;16.90;76.10;;;17.25;59.10;98239.78;5026758;28;20695;-40
2022/07/11 04:47:17;;;;;;;7.57;6.15;;;16.90;75.60;;;17.25;59.00;98237.09;5026027;28;20064;-41
2022/07/11 04:49:46;;;;;;;6.50;4.97;;;16.90;75.60;;;17.27;58.86;98237.75;5025253;28;20373;-41
2022/07/11 04:52:14;;;;;;;6.20;5.32;;;17.00;75.40;;;17.30;59.17;98240.06;5027269;28;20063;-39
2022/07/11 04:54:42;;;;;;;6.82;5.78;;;17.00;75.30;;;17.19;59.56;98236.00;5026776;28;20045;-39
2022/07/11 04:57:11;;;;;;;5.68;5.10;;;16.90;76.10;;;17.23;59.32;98239.97;5026178;28;20340;-39
2022/07/11 04:59:39;;;;;;;9.77;5.38;;;16.90;76.30;;;17.19;59.60;98241.38;5025411;28;20055;-39
2022/07/11 05:02:06;;;;;;;7.18;4.97;;;16.90;76.40;;;17.27;59.30;98241.28;5029410;28;20048;-40
2022/07/11 05:04:34;;;;;;;7.55;5.80;;;17.00;75.90;;;17.34;59.10;98235.97;5030427;28;20053;-40
2022/07/11 05:07:03;;;;;;;8.13;5.18;;;17.10;75.60;;;17.34;59.36;98248.59;5030963;28;20053;-39
2022/07/11 05:09:31;;;;;;;7.20;4.97;;;17.10;75.50;;;17.39;58.92;98247.00;5030391;28;20051;-40
2022/07/11 05:11:58;;;;;;;6.43;5.00;;;17.20;74.90;;;17.39;59.16;98244.31;5031137;28;20096;-40
2022/07/11 05:14:26;;;;;;;7.80;5.60;;;17.10;75.10;;;17.32;59.37;98254.16;5028749;28;20320;-40
2022/07/11 05:16:54;;;;;;;6.43;5.07;;;17.00;75.80;;;17.29;59.62;98244.63;5032403;28;20060;-40
2022/07/11 05:19:22;;;;;;;5.03;4.53;;;17.00;76.10;;;17.35;59.38;98251.09;5029428;28;20045;-41
2022/07/11 05:21:50;;;;;;;6.97;4.55;;;17.10;76.00;;;17.36;59.31;98255.44;5030585;28;20249;-40
2022/07/11 05:24:18;;;;;;;8.77;4.78;;;17.10;75.60;;;17.41;59.16;98252.19;5030264;28;20068;-40
2022/07/11 05:26:46;;;;;;;4.80;4.30;;;17.20;75.50;;;17.35;59.44;98250.25;5030424;28;20049;-40
2022/07/11 05:29:14;;;;;;;5.53;4.78;;;17.10;75.80;;;17.38;59.11;98252.56;5029144;28;20063;-40
2022/07/11 05:31:45;;;;;;;6.25;4.80;;;17.10;75.50;;;17.48;59.29;98250.41;5029484;28;20056;-40
2022/07/11 05:34:13;;;;;;;6.60;5.18;;;17.30;75.10;;;17.41;59.33;98257.56;5029868;28;20356;-40
2022/07/11 05:36:43;;;;;;;6.63;5.55;;;17.20;75.40;;;17.32;59.63;98254.16;5029858;28;20057;-40
2022/07/11 05:39:11;;;;;;;8.43;5.20;;;17.10;76.00;;;17.21;60.02;98263.53;5029517;28;20075;-40
2022/07/11 05:41:38;;;;;;;6.05;5.10;;;17.00;76.50;;;17.15;60.06;98260.78;5029898;28;20049;-39
2022/07/11 05:44:06;;;;;;;5.45;4.40;;;16.80;77.60;;;17.20;60.17;98266.44;5029892;28;20055;-40
2022/07/11 05:46:39;;;;;;;5.60;4.90;;;16.90;77.30;;;17.20;60.33;98266.44;5030156;28;20061;-41
2022/07/11 05:49:07;;;;;;;5.18;4.28;;;17.00;77.10;;;17.30;59.95;98267.81;5029407;28;20245;-41
2022/07/11 05:51:36;;;;;;;6.63;4.43;;;17.10;76.30;;;17.32;59.99;98263.06;5044325;28;20458;-41
2022/07/11 05:54:04;;;;;;;4.30;3.90;;;17.10;75.70;;;17.40;59.55;98274.75;5029305;28;20063;-41
2022/07/11 05:56:31;;;;;;;6.35;4.63;;;17.20;75.50;;;17.50;59.36;98270.72;5029141;28;20046;-39
2022/07/11 05:58:59;;;;;;;4.57;3.95;;;17.40;75.00;;;17.61;59.23;98269.38;5029539;28;20091;-39
2022/07/11 06:01:27;;;;;;;6.18;4.30;;;17.50;74.50;;;17.69;58.99;98269.25;5028829;28;20053;-40
2022/07/11 06:04:03;;;;;;;6.30;3.92;;;17.60;73.70;;;17.72;58.64;98270.75;5030419;28;20229;-40
2022/07/11 06:06:32;;;;;;;5.30;4.35;;;17.60;73.30;;;17.74;58.57;98275.94;5028713;28;20057;-40
2022/07/11 06:09:00;;;;;;;4.38;3.97;;;17.60;73.30;;;17.83;58.64;98267.53;5029298;28;20275;-40
2022/07/11 06:11:28;;;;;;;5.05;4.10;;;17.70;73.00;;;17.87;58.51;98263.47;5029354;28;20338;-40
2022/07/11 06:13:56;;;;;;;6.00;4.03;;;17.80;72.80;;;17.94;58.25;98273.47;5028430;28;20063;-40
2022/07/11 06:16:28;;;;;;;5.43;4.60;;;17.90;72.50;;;18.01;58.06;98274.34;5027541;28;20045;-40
2022/07/11 06:18:56;;;;;;;4.07;3.67;;;17.90;71.40;;;18.05;57.84;98272.97;5029059;28;20340;-41
2022/07/11 06:21:25;;;;;;;4.65;3.72;;;17.90;72.10;;;18.16;57.71;98277.81;5029446;28;20045;-41
2022/07/11 06:23:54;;;;;;;5.68;5.07;;;18.10;71.20;;;18.21;57.46;98272.69;5029098;28;20056;-41
2022/07/11 06:26:22;;;;;;;4.88;3.90;;;18.20;70.50;;;18.26;57.48;98280.16;5028778;28;20049;-41
2022/07/11 06:28:50;;;;;;;4.35;3.88;;;18.20;70.50;;;18.35;57.28;98276.31;5029076;28;20398;-40
2022/07/11 06:31:18;;;;;;;4.53;4.13;;;18.40;70.20;;;18.47;57.32;98274.72;5028613;28;20053;-40
2022/07/11 06:33:47;;;;;;;4.43;4.03;;;18.50;69.60;;;18.57;57.03;98274.41;5028700;28;20244;-40
2022/07/11 06:36:26;;;;;;;6.53;4.45;;;18.60;69.10;;;18.65;56.75;98266.16;5027013;28;20045;-40
2022/07/11 06:38:54;;;;;;;4.15;3.67;;;18.70;68.70;;;18.67;56.40;98266.78;5027839;28;20052;-40
2022/07/11 06:41:22;;;;;;;4.47;3.97;;;18.60;68.50;;;18.67;56.21;98271.38;5029602;28;20076;-40
2022/07/11 06:43:50;;;;;;;5.10;3.70;;;18.60;68.60;;;18.72;55.86;98270.75;5028873;28;20041;-41
2022/07/11 06:46:18;;;;;;;7.72;4.05;;;18.50;67.90;;;18.76;55.88;98272.84;5027231;28;20079;-41
2022/07/11 06:48:46;;;;;;;4.78;3.38;;;18.70;67.90;;;18.71;55.71;98275.31;5028902;28;20151;-42
2022/07/11 06:51:14;;;;;;;4.30;3.72;;;18.60;67.60;;;18.46;56.18;98267.69;5028752;28;20270;-40
2022/07/11 06:53:42;;;;;;;4.07;3.17;;;18.30;68.20;;;18.48;56.22;98272.88;5028297;28;20048;-40
2022/07/11 06:56:11;;;;;;;3.33;3.00;;;18.30;68.80;;;18.48;56.20;98271.00;5028012;28;20041;-40
2022/07/11 06:58:39;;;;;;;3.40;3.10;;;18.40;68.60;;;18.56;56.02;98267.34;5028083;28;20045;-39
2022/07/11 07:01:08;;;;;;;2.75;2.53;;;18.50;67.80;;;18.69;55.70;98269.28;5027908;28;20362;-39
2022/07/11 07:03:36;;;;;;;5.70;2.70;;;18.70;67.00;;;18.80;55.63;98270.63;5028564;28;20057;-40
2022/07/11 07:06:05;;;;;;;3.90;3.22;;;18.90;66.30;;;18.74;55.41;98274.91;5028013;28;20050;-40
2022/07/11 07:08:34;;;;;;;4.78;2.53;;;18.80;66.00;;;18.72;55.19;98273.44;5026235;28;20061;-40
2022/07/11 07:11:02;;;;;;;4.15;2.60;;;18.70;65.90;;;18.78;55.10;98273.47;5027781;28;20059;-40
2022/07/11 07:13:35;;;;;;;3.03;2.72;;;18.70;66.20;;;18.85;55.11;98271.69;5028755;28;20075;-40
2022/07/11 07:16:06;;;;;;;3.28;2.70;;;18.80;65.60;;;18.93;54.46;98268.00;5028430;28;20045;-39
2022/07/11 07:18:40;;;;;;;3.08;2.78;;;18.90;64.90;;;19.02;54.51;98265.97;5027763;28;20045;-40
2022/07/11 07:21:09;;;;;;;2.80;2.40;;;19.10;64.60;;;19.06;54.17;98270.78;5027579;28;20050;-40
2022/07/11 07:23:38;;;;;;;2.65;2.38;;;19.10;64.70;;;19.15;54.40;98268.72;5027485;28;20049;-40
2022/07/11 07:26:06;;;;;;;4.53;2.40;;;19.10;64.50;;;19.23;54.18;98265.00;5028021;28;20068;-40
2022/07/11 07:28:34;;;;;;;3.90;2.53;;;19.30;64.20;;;19.32;53.98;98266.50;5028183;28;20057;-40
2022/07/11 07:31:01;;;;;;;4.82;2.38;;;19.50;63.70;;;19.38;53.89;98271.09;5025980;28;20061;-41
2022/07/11 07:33:30;;;;;;;4.03;3.30;;;19.50;63.50;;;19.49;54.01;98269.69;5041856;28;20390;-40
2022/07/11 07:36:12;;;;;;;2.38;2.17;;;19.70;63.30;;;19.50;53.52;98270.50;5028210;28;20059;-40
2022/07/11 07:38:43;;;;;;;4.00;2.60;;;19.60;62.60;;;19.57;53.46;98271.38;5027201;28;20060;-40
2022/07/11 07:41:12;;;;;;;3.40;2.35;;;19.70;62.70;;;19.65;53.03;98263.91;5028012;28;20123;-40
2022/07/11 07:43:44;;;;;;;3.35;2.38;;;19.80;61.60;;;19.76;53.05;98267.09;5028503;28;20366;-40
2022/07/11 07:46:11;;;;;;;3.17;2.08;;;20.00;61.30;;;19.86;52.82;98271.03;5027469;28;20057;-40
2022/07/11 07:48:41;;;;;;;2.40;2.10;;;20.20;60.80;;;19.96;52.70;98269.81;5026863;28;20052;-40
2022/07/11 07:51:09;;;;;;;2.50;2.15;;;20.30;60.00;;;19.94;52.34;98264.59;5027878;28;20057;-40
2022/07/11 07:53:37;;;;;;;2.53;2.05;;;20.10;60.50;;;20.03;51.77;98262.56;5026217;28;20259;-39
2022/07/11 07:56:06;;;;;;;2.38;1.80;;;20.20;59.70;;;20.10;51.47;98262.53;5027824;28;20045;-40
2022/07/11 07:58:34;;;;;;;2.35;1.98;;;20.30;59.10;;;20.13;51.41;98254.84;5040871;28;20057;-40
2022/07/11 08:03:48;;;;;;;2.17;1.98;;;20.40;58.70;;;20.23;51.12;98259.84;5034732;28;20260;-40
2022/07/11 08:06:16;;;;;;;2.03;1.83;;;20.50;58.40;;;20.26;50.69;98259.44;5036872;28;20050;-40
2022/07/11 08:08:44;;;;;;;2.17;1.88;;;20.40;58.10;;;20.26;50.53;98259.44;5035954;28;20044;-40
2022/07/11 08:11:12;;;;;;;4.05;2.80;;;20.40;58.10;;;20.27;50.54;98261.91;5034679;28;20057;-41
2022/07/11 08:13:59;;;;;;;4.43;2.75;;;20.40;58.30;;;20.35;50.52;98268.16;5034187;28;20051;-41
2022/07/11 08:16:28;;;;;;;2.38;2.00;;;20.50;58.20;;;20.36;50.50;98262.53;5037068;28;20051;-41
2022/07/11 08:18:59;;;;;;;2.10;1.90;;;20.40;58.10;;;20.35;50.39;98263.56;5032967;28;20051;-40
2022/07/11 08:21:28;;;;;;;2.40;1.92;;;20.40;58.20;;;20.35;50.27;98262.75;5041104;28;20051;-41
2022/07/11 08:23:57;;;;;;;2.50;2.15;;;20.40;58.10;;;20.35;50.22;98260.03;5045290;28;20072;-41
2022/07/11 08:26:25;;;;;;;2.00;1.80;;;20.30;57.70;;;20.32;50.03;98258.59;5046055;28;20052;-40
2022/07/11 08:29:02;;;;;;;2.38;1.95;;;20.30;57.80;;;20.26;49.75;98254.84;5045315;28;20624;-40
2022/07/11 08:31:30;;;;;;;3.25;1.70;;;20.20;57.50;;;20.21;49.54;98245.72;5046962;28;20061;-40
2022/07/11 08:33:59;;;;;;;3.33;1.88;;;20.10;57.50;;;20.16;49.46;98240.94;5046701;28;20048;-40
2022/07/11 08:36:29;;;;;;;2.42;2.22;;;20.00;57.30;;;20.09;49.04;98252.78;5031609;28;20049;-40
2022/07/11 08:38:58;;;;;;;3.05;2.15;;;19.90;57.00;;;19.95;49.36;98255.47;5025772;28;20054;-41
2022/07/11 08:41:27;;;;;;;3.78;2.30;;;19.70;57.40;;;19.89;49.50;98252.75;5026544;28;20049;-42
2022/07/11 08:43:54;;;;;;;4.85;1.67;;;19.70;57.90;;;19.92;49.60;98249.66;5026990;28;20393;-41
2022/07/11 08:46:25;;;;;;;2.15;1.67;;;19.80;57.80;;;19.93;49.66;98246.75;5026869;28;20410;-40
2022/07/11 08:48:54;;;;;;;3.35;1.80;;;19.90;57.70;;;19.91;49.29;98246.13;5024491;28;20440;-41
2022/07/11 08:51:23;;;;;;;1.45;1.35;;;19.90;57.00;;;19.94;49.22;98232.19;5025393;28;20056;-41
2022/07/11 08:53:51;;;;;;;1.35;1.23;;;20.00;56.60;;;20.00;49.03;98241.34;5026054;28;20057;-40
2022/07/11 08:56:21;;;;;;;1.98;1.48;;;20.10;56.20;;;20.09;48.90;98247.38;5026633;28;20060;-41
2022/07/11 08:58:50;;;;;;;2.08;1.58;;;20.30;55.70;;;20.18;48.06;98243.41;5025777;28;20050;-42
2022/07/11 09:01:34;;;;;;;1.70;1.52;;;20.40;54.40;;;20.32;48.03;98241.56;5024866;28;20332;-42
2022/07/11 09:04:02;;;;;;;2.53;1.75;;;20.60;53.90;;;20.46;47.93;98241.31;5025419;28;20063;-41
2022/07/11 09:06:30;;;;;;;2.10;1.90;;;20.80;53.90;;;20.55;47.64;98231.13;5023635;28;20064;-41
2022/07/11 09:09:02;;;;;;;1.98;1.70;;;20.90;53.70;;;20.65;47.91;98239.66;5024506;28;20057;-41
2022/07/11 09:11:56;;;;;;;2.00;1.80;;;21.00;53.20;;;20.68;46.86;98238.38;5025050;28;20061;-41
2022/07/11 09:14:26;;;;;;;3.60;1.63;;;21.10;52.50;;;20.75;47.05;98231.09;5027036;28;20229;-41
2022/07/11 09:17:04;;;;;;;1.60;1.48;;;21.00;52.60;;;20.79;46.98;98237.75;5025809;28;20049;-40
2022/07/11 09:19:37;;;;;;;2.63;1.65;;;21.00;52.40;;;20.69;46.70;98240.06;5025669;28;20060;-42
2022/07/11 09:27:54;;;;;;;3.22;1.73;;;21.00;52.60;;;20.88;46.42;98253.75;5025961;28;20053;-41
2022/07/11 09:30:29;;;;;;;2.03;1.75;;;21.10;52.40;;;21.03;46.05;98247.03;5025176;28;20229;-41
2022/07/11 09:33:00;;;;;;;3.65;1.77;;;21.40;52.10;;;21.23;46.12;98248.84;5024092;28;20072;-41
2022/07/11 09:35:35;;;;;;;1.42;1.33;;;21.60;51.40;;;21.37;45.60;98241.47;5031846;28;20067;-40
2022/07/11 09:38:12;;;;;;;1.85;1.70;;;21.80;50.50;;;21.53;45.16;98245.59;5036621;28;20053;-41
2022/07/11 09:40:44;;;;;;;2.85;1.55;;;22.00;49.80;;;21.65;45.02;98241.13;5047451;28;20049;-40
2022/07/11 09:43:12;;;;;;;2.50;1.58;;;22.10;50.00;;;21.73;44.82;98243.59;5034765;28;20051;-40
2022/07/11 09:45:41;;;;;;;1.77;1.67;;;22.30;49.90;;;21.86;44.08;98239.13;5037345;28;20059;-40
2022/07/11 09:48:13;;;;;;;2.47;1.55;;;22.40;47.60;;;21.89;44.01;98238.69;5035705;28;20366;-41
2022/07/11 09:51:00;;;;;;;2.13;1.98;;;22.40;47.70;;;21.97;41.75;98239.25;5039656;28;20037;-41
2022/07/11 09:53:27;;;;;;;5.28;1.60;;;22.50;45.40;;;22.09;42.87;98236.66;5025282;28;20348;-41
2022/07/11 09:55:55;;;;;;;1.50;1.40;;;22.50;47.60;;;22.21;43.10;98236.75;5025128;28;20038;-40
2022/07/11 09:58:29;;;;;;;2.17;1.83;;;22.70;47.80;;;22.31;43.24;98241.72;5025146;28;20229;-41
2022/07/11 10:00:57;;;;;;;1.77;1.65;;;22.80;46.70;;;22.25;42.50;98237.19;5025474;28;20056;-41
2022/07/11 10:03:25;;;;;;;1.60;1.50;;;22.70;46.90;;;22.24;42.86;98241.75;5022911;28;20060;-41
2022/07/11 10:06:13;;;;;;;2.15;1.67;;;22.50;47.40;;;22.04;42.54;98239.19;5017056;28;20056;-41
2022/07/11 10:08:41;;;;;;;2.58;1.80;;;22.30;47.40;;;22.18;42.70;98246.19;5010349;28;20225;-41
2022/07/11 10:11:11;;;;;;;2.50;2.00;;;22.40;47.40;;;22.18;42.88;98239.94;5012499;28;20064;-41
2022/07/11 10:13:39;;;;;;;2.22;1.90;;;22.50;48.10;;;22.15;43.29;98243.91;5011244;28;20071;-41
2022/07/11 10:16:42;;;;;;;1.92;1.73;;;22.40;48.30;;;22.16;43.08;98245.56;5009016;28;20245;-41
2022/07/11 10:19:46;;;;;;;2.30;1.88;;;22.60;47.70;;;22.21;43.03;98242.19;5009600;28;20058;-41
2022/07/11 10:22:38;;;;;;;1.88;1.75;;;22.70;47.60;;;22.25;43.21;98248.03;5008068;28;20447;-41
2022/07/11 10:25:21;;;;;;;3.17;1.70;;;22.60;47.30;;;22.31;41.93;98241.72;5008684;28;20052;-41
2022/07/11 10:28:14;;;;;;;7.60;2.15;;;22.60;46.20;;;22.28;42.19;98232.16;5010093;28;20060;-41
2022/07/11 10:30:59;;;;;;;2.40;2.20;;;22.50;47.00;;;22.44;42.33;98229.94;5007607;28;20058;-42
2022/07/11 10:33:29;;;;;;;3.53;2.00;;;22.70;46.70;;;22.60;43.00;98234.75;5008852;28;20062;-41
2022/07/11 10:35:58;;;;;;;2.55;1.83;;;23.10;47.60;;;22.77;43.03;98235.81;5008798;28;20067;-43
2022/07/11 10:38:26;;;;;;;2.22;1.70;;;23.40;47.20;;;22.95;42.90;98234.16;5009111;28;20390;-42
2022/07/11 10:40:58;;;;;;;2.45;1.92;;;23.60;46.70;;;23.13;42.57;98241.53;5008343;28;20050;-41
2022/07/11 10:43:40;;;;;;;2.13;1.92;;;23.80;45.80;;;23.07;41.80;98245.13;5008567;28;20054;-40